Terminal Aerodrome Forecast
Issued by NWS

Home | Current Version | Previous Version | Text Only | Print | Product List | Glossary On
Versions: 1 2 3 4 5 6 7 8 9 10 11 12 13 14
000
FTUS44 KLZK 140500
TAFBPK
TAF
KBPK 140536Z 1406/1506 21005KT P6SM VCTS SCT040CB SCT100
     FM141500 30006KT P6SM VCTS SCT035CB BKN100
     FM141800 33008KT P6SM VCTS SCT035CB BKN060=

USA.gov is the U.S. government's official web portal to all federal, state and local government web resources and services.